Time;durP1;ratioP1;P1;durP2;ratioP2;P2;SDS_P1;SDS_P2;PMS_P1;PMS_P2;Temp;Humidity;BMP_temperature;BMP_pressure;BME280_temperature;BME280_humidity;BME280_pressure;Samples;Min_cycle;Max_cycle;Signal;HPM_P1;HPM_P2
2024/01/07 00:00:03;;;;;;;2.60;1.30;;;-2.00;99.90;;;;;;4909918;28;20478;-58
2024/01/07 00:02:30;;;;;;;3.45;1.70;;;-2.00;99.90;;;;;;4927390;28;20034;-59
2024/01/07 00:04:56;;;;;;;2.92;1.58;;;-2.00;99.90;;;;;;4933828;28;20048;-56
2024/01/07 00:07:22;;;;;;;6.30;1.65;;;-2.00;99.90;;;;;;4966237;28;20037;-61
2024/01/07 00:09:47;;;;;;;2.60;1.90;;;-2.00;99.90;;;;;;4937530;28;20041;-58
2024/01/07 00:12:13;;;;;;;1.83;1.48;;;-2.00;99.90;;;;;;4960575;28;20037;-56
2024/01/07 00:14:39;;;;;;;3.08;1.45;;;-2.00;99.90;;;;;;4928207;28;20026;-57
2024/01/07 00:17:04;;;;;;;4.82;1.58;;;-2.10;99.90;;;;;;4924883;28;20394;-61
2024/01/07 00:19:31;;;;;;;3.63;1.67;;;-2.00;99.90;;;;;;4923508;28;20651;-61
2024/01/07 00:21:57;;;;;;;2.53;1.48;;;-2.10;99.90;;;;;;4972249;28;20057;-57
2024/01/07 00:24:25;;;;;;;1.80;1.25;;;-2.10;99.90;;;;;;4954158;28;20494;-59
2024/01/07 00:26:51;;;;;;;3.65;1.90;;;-2.10;99.90;;;;;;4899371;28;20038;-58
2024/01/07 00:29:16;;;;;;;3.58;1.40;;;-2.10;99.90;;;;;;4916968;28;20040;-59
2024/01/07 00:31:42;;;;;;;3.22;1.70;;;-2.00;99.90;;;;;;4918319;28;21439;-57
2024/01/07 00:34:08;;;;;;;5.00;1.60;;;-2.10;99.90;;;;;;4963768;28;20054;-58
2024/01/07 00:36:33;;;;;;;1.20;1.10;;;-2.10;99.90;;;;;;4949712;28;20021;-56
2024/01/07 00:38:59;;;;;;;3.60;1.80;;;-2.10;99.90;;;;;;4918611;28;20036;-56
2024/01/07 00:41:24;;;;;;;2.15;1.48;;;-2.10;99.90;;;;;;4910231;28;20096;-56
2024/01/07 00:43:50;;;;;;;3.03;1.58;;;-2.10;99.90;;;;;;4910593;28;22580;-60
2024/01/07 00:46:16;;;;;;;1.65;1.42;;;-2.00;99.90;;;;;;4962914;28;20475;-57
2024/01/07 00:48:41;;;;;;;1.65;1.33;;;-2.00;99.90;;;;;;4939324;28;20034;-63
2024/01/07 00:51:07;;;;;;;3.60;1.60;;;-2.00;99.90;;;;;;4903083;28;20038;-56
2024/01/07 00:53:32;;;;;;;2.92;1.35;;;-2.00;99.90;;;;;;4911104;28;20041;-56
2024/01/07 00:55:58;;;;;;;2.00;1.30;;;-1.90;99.90;;;;;;4916218;28;20680;-58
2024/01/07 00:58:24;;;;;;;2.85;1.40;;;-2.00;99.90;;;;;;4955567;28;20128;-62
2024/01/07 01:00:50;;;;;;;3.55;1.63;;;-1.90;99.90;;;;;;4929004;28;20177;-60
2024/01/07 01:03:16;;;;;;;2.15;1.20;;;-2.00;99.90;;;;;;4934531;28;20037;-56
2024/01/07 01:05:42;;;;;;;3.75;1.67;;;-2.00;99.90;;;;;;4908719;28;20584;-59
2024/01/07 01:08:07;;;;;;;1.60;1.25;;;-2.00;99.90;;;;;;4892787;28;20235;-60
2024/01/07 01:10:33;;;;;;;3.80;1.25;;;-2.10;99.90;;;;;;4906656;28;20516;-61
2024/01/07 01:12:59;;;;;;;2.22;1.42;;;-2.00;99.90;;;;;;4956496;28;20060;-58
2024/01/07 01:15:24;;;;;;;2.50;1.17;;;-2.00;99.90;;;;;;4933567;28;20049;-58
2024/01/07 01:17:50;;;;;;;3.80;1.40;;;-2.00;99.90;;;;;;4900793;28;20164;-62
2024/01/07 01:20:16;;;;;;;2.10;1.70;;;-2.10;99.90;;;;;;4895631;28;20022;-58
2024/01/07 01:22:41;;;;;;;5.55;1.48;;;-2.10;99.90;;;;;;4906090;28;21402;-59
2024/01/07 01:25:07;;;;;;;2.88;1.35;;;-2.10;99.90;;;;;;4966451;28;20034;-56
2024/01/07 01:27:33;;;;;;;1.77;1.40;;;-2.10;99.90;;;;;;4920005;28;20390;-58
2024/01/07 01:29:58;;;;;;;2.63;1.40;;;-2.20;99.90;;;;;;4903728;28;20406;-59
2024/01/07 01:32:24;;;;;;;1.40;1.27;;;-2.20;99.90;;;;;;4899701;28;20042;-58
2024/01/07 01:34:49;;;;;;;1.77;1.40;;;-2.10;99.90;;;;;;4900594;28;21711;-57
2024/01/07 01:37:15;;;;;;;3.65;1.20;;;-2.10;99.90;;;;;;4952675;28;20449;-57
2024/01/07 01:39:42;;;;;;;1.38;1.15;;;-2.10;99.90;;;;;;4937686;28;20041;-62
2024/01/07 01:42:08;;;;;;;4.78;1.65;;;-2.10;99.90;;;;;;4953614;28;20021;-58
2024/01/07 01:44:34;;;;;;;6.85;1.60;;;-2.00;99.90;;;;;;4897906;28;20030;-57
2024/01/07 01:47:00;;;;;;;3.10;1.33;;;-2.00;99.90;;;;;;4880631;28;20376;-58
2024/01/07 01:49:27;;;;;;;1.90;1.27;;;-2.00;99.90;;;;;;4923562;28;20038;-61
2024/01/07 01:51:53;;;;;;;2.22;1.52;;;-2.00;99.90;;;;;;4895298;28;20017;-57
2024/01/07 01:54:20;;;;;;;1.50;0.90;;;-2.00;99.90;;;;;;4936403;28;20394;-58
2024/01/07 01:56:46;;;;;;;2.45;1.48;;;-2.00;99.90;;;;;;4928702;28;20022;-60
2024/01/07 01:59:12;;;;;;;1.35;1.25;;;-1.90;99.90;;;;;;4900218;28;20133;-56
2024/01/07 02:01:39;;;;;;;1.70;1.17;;;-1.90;99.90;;;;;;4898127;28;20030;-54
2024/01/07 02:04:04;;;;;;;3.00;1.52;;;-1.80;99.90;;;;;;4969384;28;20274;-56
2024/01/07 02:06:30;;;;;;;1.85;1.23;;;-1.80;99.90;;;;;;4921585;28;20088;-56
2024/01/07 02:08:56;;;;;;;2.08;0.90;;;-1.80;99.90;;;;;;4897701;28;20025;-59
2024/01/07 02:11:22;;;;;;;3.30;1.30;;;-1.80;99.90;;;;;;4895786;28;20436;-54
2024/01/07 02:13:48;;;;;;;1.67;1.25;;;-1.80;99.90;;;;;;4888758;28;20045;-61
2024/01/07 02:16:14;;;;;;;1.80;1.05;;;-1.80;99.90;;;;;;4945184;28;20084;-56
2024/01/07 02:18:42;;;;;;;2.47;1.42;;;-1.80;99.90;;;;;;4924668;28;20112;-58
2024/01/07 02:21:09;;;;;;;4.68;1.65;;;-1.70;99.90;;;;;;4905341;28;20113;-58
2024/01/07 02:23:35;;;;;;;1.48;1.23;;;-1.70;99.90;;;;;;4895846;28;20038;-59
2024/01/07 02:26:01;;;;;;;2.42;1.73;;;-1.70;99.90;;;;;;4886963;28;20029;-57
2024/01/07 02:28:27;;;;;;;3.40;1.65;;;-1.70;99.90;;;;;;4913695;28;20169;-62
2024/01/07 02:30:53;;;;;;;1.60;1.38;;;-1.70;99.90;;;;;;4900990;28;20417;-56
2024/01/07 02:33:18;;;;;;;4.13;1.25;;;-1.60;99.90;;;;;;4927149;28;20034;-55
2024/01/07 02:35:44;;;;;;;1.45;1.00;;;-1.60;99.90;;;;;;4914024;28;20018;-54
2024/01/07 02:38:10;;;;;;;2.70;1.67;;;-1.60;99.90;;;;;;4896327;28;20034;-54
2024/01/07 02:40:35;;;;;;;2.75;1.50;;;-1.60;99.90;;;;;;4883506;28;20064;-62
2024/01/07 02:43:01;;;;;;;3.60;1.20;;;-1.60;99.90;;;;;;4940382;28;21637;-57
2024/01/07 02:45:26;;;;;;;3.05;1.20;;;-1.60;99.90;;;;;;4924129;28;20061;-56
2024/01/07 02:47:52;;;;;;;2.00;1.27;;;-1.60;99.90;;;;;;4888069;28;20045;-58
2024/01/07 02:50:18;;;;;;;2.95;1.10;;;-1.60;99.90;;;;;;4868045;28;20034;-58
2024/01/07 02:52:43;;;;;;;1.00;0.70;;;-1.60;99.90;;;;;;4929007;28;20068;-53
2024/01/07 02:55:09;;;;;;;1.52;1.25;;;-1.50;99.90;;;;;;4937825;28;21949;-58
2024/01/07 02:57:35;;;;;;;1.40;0.80;;;-1.50;99.90;;;;;;4979589;28;20021;-54
2024/01/07 03:00:00;;;;;;;1.17;0.95;;;-1.50;99.90;;;;;;4941930;28;20054;-57
2024/01/07 03:02:26;;;;;;;2.75;0.88;;;-1.50;99.90;;;;;;4949990;28;20041;-55
2024/01/07 03:04:52;;;;;;;2.28;1.20;;;-1.50;99.90;;;;;;4930409;28;20113;-56
2024/01/07 03:07:17;;;;;;;2.03;1.20;;;-1.50;99.90;;;;;;4930095;28;20041;-56
2024/01/07 03:09:43;;;;;;;2.25;1.25;;;-1.40;99.90;;;;;;4948869;28;20030;-61
2024/01/07 03:12:09;;;;;;;2.05;1.30;;;-1.50;99.90;;;;;;4922886;28;20104;-58
2024/01/07 03:14:34;;;;;;;1.20;0.95;;;-1.50;99.90;;;;;;4936744;28;20026;-59
2024/01/07 03:17:00;;;;;;;1.42;1.20;;;-1.50;99.90;;;;;;4936142;28;20026;-58
2024/01/07 03:19:25;;;;;;;3.10;1.02;;;-1.40;99.90;;;;;;4914097;28;20113;-58
2024/01/07 03:21:51;;;;;;;0.95;0.80;;;-1.40;99.90;;;;;;4938340;28;20030;-58
2024/01/07 03:24:17;;;;;;;1.23;0.98;;;-1.40;99.90;;;;;;4963771;28;20089;-59
2024/01/07 03:26:42;;;;;;;1.52;1.02;;;-1.40;99.90;;;;;;4936592;28;22184;-58
2024/01/07 03:29:08;;;;;;;2.75;1.20;;;-1.40;99.90;;;;;;4912030;28;20037;-55
2024/01/07 03:31:33;;;;;;;1.17;0.90;;;-1.30;99.90;;;;;;4942424;28;20516;-60
2024/01/07 03:33:59;;;;;;;1.10;1.00;;;-1.30;99.90;;;;;;4953821;28;20061;-58
2024/01/07 03:36:25;;;;;;;1.08;0.95;;;-1.30;99.90;;;;;;4987575;28;20885;-60
2024/01/07 03:38:50;;;;;;;0.82;0.65;;;-1.40;99.90;;;;;;4935019;28;20081;-58
2024/01/07 03:41:18;;;;;;;2.42;0.70;;;-1.40;99.90;;;;;;4933931;28;20505;-58
2024/01/07 03:43:44;;;;;;;1.42;0.88;;;-1.30;99.90;;;;;;4932947;28;20158;-61
2024/01/07 03:46:10;;;;;;;1.38;0.70;;;-1.30;99.90;;;;;;4899502;28;22542;-59
2024/01/07 03:48:35;;;;;;;3.75;0.90;;;-1.30;99.90;;;;;;4977153;28;20026;-57
2024/01/07 03:51:01;;;;;;;1.05;0.80;;;-1.20;99.90;;;;;;4944855;28;20041;-61
2024/01/07 03:53:26;;;;;;;1.67;0.73;;;-1.20;99.90;;;;;;4946238;28;20030;-56
2024/01/07 03:55:52;;;;;;;0.93;0.73;;;-1.30;99.90;;;;;;4973610;28;20429;-58
2024/01/07 03:58:18;;;;;;;1.85;0.82;;;-1.20;99.90;;;;;;4938327;28;20473;-57
2024/01/07 04:00:43;;;;;;;1.05;0.82;;;-1.20;99.90;;;;;;4946409;28;20081;-62
2024/01/07 04:03:09;;;;;;;2.20;0.88;;;-1.20;99.90;;;;;;4929392;28;20057;-59
2024/01/07 04:05:36;;;;;;;1.73;1.02;;;-1.30;99.90;;;;;;4926210;28;20018;-59
2024/01/07 04:08:02;;;;;;;2.13;1.08;;;-1.20;99.90;;;;;;4950271;28;20052;-60
2024/01/07 04:10:28;;;;;;;1.17;0.70;;;-1.20;99.90;;;;;;4915251;28;20038;-57
2024/01/07 04:12:53;;;;;;;2.88;0.73;;;-1.20;99.90;;;;;;4897455;28;20033;-62
2024/01/07 04:15:20;;;;;;;0.80;0.60;;;-1.20;99.90;;;;;;4972108;28;20125;-57
2024/01/07 04:17:45;;;;;;;1.92;1.02;;;-1.20;99.90;;;;;;4949701;28;20030;-57
2024/01/07 04:20:13;;;;;;;1.20;0.80;;;-1.20;99.90;;;;;;4915375;28;20087;-58
2024/01/07 04:22:39;;;;;;;2.45;1.00;;;-1.20;99.90;;;;;;4941471;28;20030;-58
2024/01/07 04:25:08;;;;;;;2.22;0.90;;;-1.20;99.90;;;;;;4896269;28;21715;-60
2024/01/07 04:27:37;;;;;;;1.55;0.95;;;-1.20;99.90;;;;;;4952223;28;20026;-59
2024/01/07 04:30:04;;;;;;;2.65;0.98;;;-1.20;99.90;;;;;;4959961;28;20569;-58
2024/01/07 04:32:29;;;;;;;2.08;1.13;;;-1.20;99.90;;;;;;4949908;28;20047;-60
2024/01/07 04:34:57;;;;;;;0.90;0.80;;;-1.20;99.90;;;;;;4923791;28;20026;-58
2024/01/07 04:37:22;;;;;;;1.20;1.08;;;-1.20;99.90;;;;;;4907436;28;20018;-57
2024/01/07 04:39:48;;;;;;;1.15;1.05;;;-1.20;99.90;;;;;;4905333;28;20033;-62
2024/01/07 04:42:13;;;;;;;0.60;0.60;;;-1.20;99.90;;;;;;4927473;28;20041;-58
2024/01/07 04:44:39;;;;;;;1.60;0.93;;;-1.20;99.90;;;;;;4946686;28;20047;-57
2024/01/07 04:47:04;;;;;;;2.67;0.75;;;-1.20;99.90;;;;;;4962250;28;20026;-60
2024/01/07 04:49:30;;;;;;;0.55;0.50;;;-1.30;99.90;;;;;;4920161;28;20030;-59
2024/01/07 04:51:55;;;;;;;2.03;0.80;;;-1.20;99.90;;;;;;4931827;28;20026;-56
2024/01/07 04:54:21;;;;;;;3.05;0.90;;;-1.30;99.90;;;;;;4944232;28;22611;-59
2024/01/07 04:56:47;;;;;;;0.77;0.77;;;-1.30;99.90;;;;;;4977493;28;20319;-59
2024/01/07 04:59:12;;;;;;;2.05;1.02;;;-1.30;99.90;;;;;;4962826;28;20037;-59
2024/01/07 05:01:38;;;;;;;1.80;0.85;;;-1.30;99.90;;;;;;4963432;28;20022;-59
2024/01/07 05:04:03;;;;;;;1.02;0.80;;;-1.30;99.90;;;;;;4964440;28;20100;-57
2024/01/07 05:06:29;;;;;;;0.85;0.82;;;-1.30;99.90;;;;;;4938659;28;20061;-59
2024/01/07 05:08:55;;;;;;;1.02;0.93;;;-1.30;99.90;;;;;;4968011;28;20022;-59
2024/01/07 05:11:20;;;;;;;1.23;0.95;;;-1.30;99.90;;;;;;4963818;28;20034;-59
2024/01/07 05:13:46;;;;;;;1.45;1.08;;;-1.30;99.90;;;;;;4932865;28;20112;-57
2024/01/07 05:16:21;;;;;;;2.70;1.40;;;-1.30;99.90;;;;;;4938039;28;20076;-59
2024/01/07 05:18:48;;;;;;;3.15;1.25;;;-1.30;99.90;;;;;;4957994;28;20022;-56
2024/01/07 05:21:15;;;;;;;2.58;0.80;;;-1.30;99.90;;;;;;4937440;28;20402;-57
2024/01/07 05:23:41;;;;;;;1.80;1.13;;;-1.30;99.90;;;;;;4963501;28;20116;-57
2024/01/07 05:26:07;;;;;;;1.60;1.10;;;-1.30;99.90;;;;;;4984677;28;20565;-58
2024/01/07 05:28:32;;;;;;;1.30;1.20;;;-1.30;99.90;;;;;;4972447;22;20433;-63
2024/01/07 05:30:58;;;;;;;1.42;1.00;;;-1.30;99.90;;;;;;4975457;28;20030;-63
2024/01/07 05:33:23;;;;;;;1.08;0.93;;;-1.30;99.90;;;;;;4963206;28;20041;-63
2024/01/07 05:35:49;;;;;;;3.08;1.25;;;-1.30;99.90;;;;;;4978296;28;20395;-62
2024/01/07 05:38:14;;;;;;;1.23;0.95;;;-1.30;99.90;;;;;;5001703;28;20095;-63
2024/01/07 05:40:40;;;;;;;1.20;1.00;;;-1.30;99.90;;;;;;4942968;28;20439;-62
2024/01/07 05:43:05;;;;;;;3.67;1.98;;;-1.30;99.90;;;;;;4956559;28;20057;-62
2024/01/07 05:45:31;;;;;;;2.38;1.13;;;-1.40;99.90;;;;;;4954723;28;20116;-61
2024/01/07 05:47:56;;;;;;;2.53;1.23;;;-1.40;99.90;;;;;;4959371;28;20056;-62
2024/01/07 05:50:22;;;;;;;1.30;1.20;;;-1.40;99.90;;;;;;4958170;28;20071;-63
2024/01/07 05:52:47;;;;;;;3.08;1.00;;;-1.40;99.90;;;;;;4936123;28;20034;-63
2024/01/07 05:55:13;;;;;;;2.22;1.10;;;-1.40;99.90;;;;;;4942669;28;20030;-63
2024/01/07 05:57:39;;;;;;;2.75;1.15;;;-1.40;99.90;;;;;;4940637;28;20018;-63
2024/01/07 06:00:05;;;;;;;2.42;0.95;;;-1.30;99.90;;;;;;4949170;28;20022;-63
2024/01/07 06:02:30;;;;;;;1.80;1.50;;;-1.30;99.90;;;;;;4939653;28;20053;-60
2024/01/07 06:04:56;;;;;;;5.88;1.60;;;-1.30;99.90;;;;;;4968495;28;20054;-62
2024/01/07 06:07:21;;;;;;;2.63;0.90;;;-1.30;99.90;;;;;;4921537;28;20625;-63
2024/01/07 06:09:48;;;;;;;1.65;1.55;;;-1.30;99.90;;;;;;4942572;28;20030;-62
2024/01/07 06:12:14;;;;;;;2.47;1.38;;;-1.30;99.90;;;;;;4939474;28;20018;-63
2024/01/07 06:14:39;;;;;;;2.60;1.55;;;-1.30;99.90;;;;;;4952746;28;20045;-63
2024/01/07 06:17:05;;;;;;;3.90;1.80;;;-1.30;99.90;;;;;;4970930;28;20041;-62
2024/01/07 06:19:30;;;;;;;5.43;2.17;;;-1.30;99.90;;;;;;4912943;28;20037;-62
2024/01/07 06:21:56;;;;;;;2.40;1.80;;;-1.20;99.90;;;;;;4904071;28;20502;-61
2024/01/07 06:24:22;;;;;;;3.97;1.98;;;-1.20;99.90;;;;;;4927757;28;21382;-63
2024/01/07 06:26:47;;;;;;;2.30;1.60;;;-1.20;99.90;;;;;;4948926;28;21160;-62
2024/01/07 06:29:13;;;;;;;4.20;2.28;;;-1.20;99.90;;;;;;4958120;28;20052;-62
2024/01/07 06:31:45;;;;;;;4.55;2.67;;;-1.20;99.90;;;;;;4954251;28;20029;-62
2024/01/07 06:34:13;;;;;;;5.13;2.35;;;-1.20;99.90;;;;;;4939487;28;20092;-59
2024/01/07 06:36:39;;;;;;;3.83;2.05;;;-1.20;99.90;;;;;;4921356;28;20018;-62
2024/01/07 06:39:05;;;;;;;5.00;2.58;;;-1.20;99.90;;;;;;4921999;28;20108;-64
2024/01/07 06:41:30;;;;;;;2.83;2.38;;;-1.20;99.90;;;;;;4943784;28;20616;-64
2024/01/07 06:43:56;;;;;;;4.20;2.30;;;-1.20;99.90;;;;;;4968866;28;20135;-63
2024/01/07 06:46:22;;;;;;;3.63;2.40;;;-1.20;99.90;;;;;;4946068;28;20562;-63
2024/01/07 06:48:48;;;;;;;3.50;2.55;;;-1.30;99.90;;;;;;4922453;28;20197;-61
2024/01/07 06:51:14;;;;;;;4.78;2.13;;;-1.30;99.90;;;;;;4930856;28;20026;-62
2024/01/07 06:53:40;;;;;;;4.13;2.25;;;-1.30;99.90;;;;;;4943488;28;20038;-62
2024/01/07 06:56:06;;;;;;;5.05;2.60;;;-1.30;99.90;;;;;;4952757;28;20033;-62
2024/01/07 06:58:32;;;;;;;3.40;2.35;;;-1.30;99.90;;;;;;4952104;28;20113;-62
2024/01/07 07:00:58;;;;;;;6.40;2.55;;;-1.30;99.90;;;;;;4936223;28;20065;-63
2024/01/07 07:03:23;;;;;;;4.00;2.47;;;-1.30;99.90;;;;;;4923937;28;20603;-63
2024/01/07 07:05:49;;;;;;;5.00;2.55;;;-1.30;99.90;;;;;;4938247;28;21397;-62
2024/01/07 07:08:15;;;;;;;7.30;2.63;;;-1.40;99.90;;;;;;4953609;28;20030;-63
2024/01/07 07:10:40;;;;;;;3.40;2.40;;;-1.40;99.90;;;;;;4933706;28;20034;-63
2024/01/07 07:13:06;;;;;;;3.78;2.20;;;-1.40;99.90;;;;;;4910947;28;20038;-62
2024/01/07 07:15:31;;;;;;;4.43;2.30;;;-1.50;99.90;;;;;;4929186;28;20061;-63
2024/01/07 07:17:57;;;;;;;4.35;2.70;;;-1.50;99.90;;;;;;4936784;28;20038;-62
2024/01/07 07:20:23;;;;;;;2.85;2.45;;;-1.50;99.90;;;;;;4943440;28;20057;-65
2024/01/07 07:22:48;;;;;;;3.72;2.35;;;-1.50;99.90;;;;;;4923439;28;20043;-62
2024/01/07 07:25:14;;;;;;;3.28;1.98;;;-1.60;99.90;;;;;;4949948;28;20037;-62
2024/01/07 07:27:39;;;;;;;3.65;2.60;;;-1.60;99.90;;;;;;4920408;28;20044;-63
2024/01/07 07:30:06;;;;;;;3.75;2.20;;;-1.60;99.90;;;;;;4926596;28;20421;-63
2024/01/07 07:32:31;;;;;;;3.47;2.58;;;-1.70;99.90;;;;;;4928758;28;20025;-62
2024/01/07 07:34:57;;;;;;;3.88;2.22;;;-1.80;99.90;;;;;;4964079;28;20080;-62
2024/01/07 07:37:23;;;;;;;2.45;2.15;;;-1.80;99.90;;;;;;4948265;28;20038;-63
2024/01/07 07:39:49;;;;;;;4.55;2.08;;;-1.90;99.90;;;;;;4926302;28;20088;-63
2024/01/07 07:42:15;;;;;;;5.80;2.00;;;-1.90;99.90;;;;;;4922431;28;20026;-62
2024/01/07 07:44:41;;;;;;;6.20;2.67;;;-1.90;99.90;;;;;;4924992;28;20073;-62
2024/01/07 07:47:07;;;;;;;3.63;2.45;;;-1.90;99.90;;;;;;4964594;28;20037;-61
2024/01/07 07:49:34;;;;;;;3.83;1.98;;;-1.90;99.90;;;;;;4946022;28;20096;-62
2024/01/07 07:51:59;;;;;;;4.43;2.67;;;-1.90;99.90;;;;;;4931273;28;20117;-62
2024/01/07 07:54:25;;;;;;;3.30;2.45;;;-2.00;99.90;;;;;;4906628;28;21381;-62
2024/01/07 07:56:50;;;;;;;2.92;2.15;;;-2.00;99.90;;;;;;4917477;28;21784;-64
2024/01/07 07:59:16;;;;;;;3.30;2.05;;;-2.00;99.90;;;;;;4957979;28;20033;-64
2024/01/07 08:01:42;;;;;;;5.30;2.30;;;-2.00;99.90;;;;;;4948261;28;20034;-64
2024/01/07 08:04:09;;;;;;;2.58;1.90;;;-2.00;99.90;;;;;;4913109;28;20618;-64
2024/01/07 08:06:35;;;;;;;3.85;2.70;;;-2.00;99.90;;;;;;4917421;28;20398;-62
2024/01/07 08:09:00;;;;;;;4.30;2.45;;;-2.00;99.90;;;;;;4919946;28;20030;-63
2024/01/07 08:11:26;;;;;;;2.47;2.10;;;-2.00;99.90;;;;;;4939103;28;20121;-62
2024/01/07 08:13:52;;;;;;;4.80;2.20;;;-2.10;99.90;;;;;;4945240;28;20097;-62
2024/01/07 08:16:18;;;;;;;3.45;2.30;;;-2.00;99.90;;;;;;4918089;28;20117;-60
2024/01/07 08:18:44;;;;;;;3.15;2.25;;;-2.00;99.90;;;;;;4916821;28;20026;-62
2024/01/07 08:21:10;;;;;;;2.42;2.00;;;-2.10;99.90;;;;;;4905022;28;20053;-63
2024/01/07 08:23:35;;;;;;;5.50;2.00;;;-2.00;99.90;;;;;;4910055;28;20037;-63
2024/01/07 08:26:02;;;;;;;2.53;1.55;;;-2.10;99.90;;;;;;4953480;28;20041;-62
2024/01/07 08:28:27;;;;;;;3.22;2.05;;;-2.10;99.90;;;;;;4958362;28;20045;-61
2024/01/07 08:30:53;;;;;;;3.33;2.05;;;-2.20;99.90;;;;;;4945523;28;20026;-62
2024/01/07 08:33:19;;;;;;;2.38;1.88;;;-2.20;99.90;;;;;;4904088;28;20030;-63
2024/01/07 08:35:44;;;;;;;4.03;2.00;;;-2.20;99.90;;;;;;4897062;28;21799;-63
2024/01/07 08:38:10;;;;;;;3.40;2.63;;;-2.30;99.90;;;;;;4950694;28;20545;-62
2024/01/07 08:40:36;;;;;;;2.40;2.15;;;-2.30;99.90;;;;;;4987568;28;20045;-63
2024/01/07 08:43:02;;;;;;;4.63;2.33;;;-2.30;99.90;;;;;;4904268;28;20037;-63
2024/01/07 08:45:28;;;;;;;2.35;1.90;;;-2.30;99.90;;;;;;4907757;28;20034;-62
2024/01/07 08:47:54;;;;;;;5.80;2.65;;;-2.50;99.90;;;;;;4904337;28;22392;-63
2024/01/07 08:50:20;;;;;;;2.53;2.33;;;-2.40;99.90;;;;;;4945196;28;20030;-61
2024/01/07 08:52:46;;;;;;;3.55;2.33;;;-2.50;99.90;;;;;;4903853;28;20037;-69
2024/01/07 08:55:12;;;;;;;3.45;2.30;;;-2.50;99.90;;;;;;4923462;28;20053;-65
2024/01/07 08:57:41;;;;;;;3.55;1.85;;;-2.50;99.90;;;;;;4904906;28;20351;-63
2024/01/07 09:00:10;;;;;;;3.90;2.22;;;-2.50;99.90;;;;;;4883216;28;20056;-63
2024/01/07 09:02:35;;;;;;;3.25;2.55;;;-2.50;99.90;;;;;;4899600;28;20030;-64
2024/01/07 09:05:01;;;;;;;2.90;2.15;;;-2.50;99.90;;;;;;4955449;28;20709;-63
2024/01/07 09:07:27;;;;;;;2.60;1.88;;;-2.50;99.90;;;;;;4927886;28;20105;-64
2024/01/07 09:09:55;;;;;;;3.42;2.15;;;-2.50;99.90;;;;;;4907714;28;20104;-65
2024/01/07 09:12:20;;;;;;;2.60;1.73;;;-2.50;99.90;;;;;;4908783;28;20026;-65
2024/01/07 09:14:46;;;;;;;3.80;1.92;;;-2.50;99.90;;;;;;4912687;28;21505;-62
2024/01/07 09:17:12;;;;;;;4.45;2.35;;;-2.40;99.90;;;;;;4957031;28;20462;-64
2024/01/07 09:19:38;;;;;;;2.63;2.22;;;-2.40;99.90;;;;;;4921122;28;20022;-63
2024/01/07 09:22:04;;;;;;;3.58;2.22;;;-2.40;99.90;;;;;;4899880;28;20076;-63
2024/01/07 09:24:30;;;;;;;2.97;2.00;;;-2.40;99.90;;;;;;4994578;28;20605;-62
2024/01/07 09:26:56;;;;;;;3.05;1.85;;;-2.40;99.90;;;;;;4998649;28;20022;-63
2024/01/07 09:29:22;;;;;;;2.42;1.77;;;-2.40;99.90;;;;;;5000696;28;20064;-62
2024/01/07 09:31:48;;;;;;;2.58;1.60;;;-2.30;99.90;;;;;;5000560;28;20149;-63
2024/01/07 09:34:14;;;;;;;2.78;1.92;;;-2.30;99.90;;;;;;5000684;28;20497;-62
2024/01/07 09:36:40;;;;;;;2.25;1.80;;;-2.10;99.90;;;;;;5001007;28;20022;-65
2024/01/07 09:39:06;;;;;;;3.97;2.10;;;-2.00;99.90;;;;;;5003456;28;20045;-61
2024/01/07 09:41:32;;;;;;;1.83;1.55;;;-2.00;99.90;;;;;;5005036;28;20071;-62
2024/01/07 09:43:59;;;;;;;2.50;1.67;;;-1.90;99.90;;;;;;5001900;28;20022;-62
2024/01/07 09:46:25;;;;;;;3.10;1.75;;;-1.90;99.90;;;;;;5002476;28;20033;-63
2024/01/07 09:48:51;;;;;;;4.60;1.92;;;-1.80;99.90;;;;;;5004433;28;20053;-63
2024/01/07 09:51:21;;;;;;;2.42;1.83;;;-1.80;99.90;;;;;;5002627;28;20487;-63
2024/01/07 09:53:48;;;;;;;3.33;1.58;;;-1.70;99.90;;;;;;5004088;28;20052;-63
2024/01/07 09:56:22;;;;;;;3.30;1.88;;;-1.70;99.90;;;;;;5001548;28;20079;-62
2024/01/07 09:58:49;;;;;;;2.88;1.63;;;-1.70;99.90;;;;;;5001503;28;20045;-63
2024/01/07 10:01:17;;;;;;;3.35;1.48;;;-1.60;99.90;;;;;;4998487;28;20018;-63
2024/01/07 10:03:42;;;;;;;2.50;1.80;;;-1.60;99.90;;;;;;5005399;28;20034;-64
2024/01/07 10:06:08;;;;;;;1.77;1.48;;;-1.70;99.90;;;;;;5000913;28;20037;-62
2024/01/07 10:08:34;;;;;;;4.13;2.20;;;-1.70;99.90;;;;;;5004035;28;20658;-63
2024/01/07 10:11:02;;;;;;;4.18;2.33;;;-1.80;99.90;;;;;;5000946;28;20117;-64
2024/01/07 10:13:27;;;;;;;2.67;1.83;;;-1.80;99.90;;;;;;5003072;28;20029;-63
2024/01/07 10:15:54;;;;;;;3.97;1.60;;;-1.80;99.90;;;;;;5000776;28;20028;-63
2024/01/07 10:18:20;;;;;;;2.63;2.03;;;-1.80;99.90;;;;;;5002226;28;20032;-64
2024/01/07 10:20:45;;;;;;;2.40;1.85;;;-1.70;99.90;;;;;;5002554;28;20096;-63
2024/01/07 10:23:11;;;;;;;1.55;1.35;;;-1.60;99.90;;;;;;5000358;28;20034;-64
2024/01/07 10:25:37;;;;;;;4.90;2.08;;;-1.60;99.90;;;;;;5001484;28;20028;-64
2024/01/07 10:28:03;;;;;;;3.88;2.17;;;-1.60;99.90;;;;;;5002984;28;20029;-63
2024/01/07 10:30:32;;;;;;;4.53;2.10;;;-1.60;99.90;;;;;;5001228;28;20087;-63
2024/01/07 10:32:58;;;;;;;3.03;1.92;;;-1.50;99.90;;;;;;5004827;28;20088;-64
2024/01/07 10:35:37;;;;;;;4.40;2.33;;;-1.40;99.90;;;;;;5004008;28;20149;-64
2024/01/07 10:38:03;;;;;;;2.90;1.80;;;-1.40;99.90;;;;;;5000704;28;20038;-66
2024/01/07 10:40:31;;;;;;;3.78;2.08;;;-1.30;99.90;;;;;;5002893;28;20533;-63
2024/01/07 10:42:58;;;;;;;2.40;1.88;;;-1.40;99.90;;;;;;5000915;28;20651;-62
2024/01/07 10:45:23;;;;;;;2.83;1.88;;;-1.30;99.90;;;;;;5002636;28;20026;-63
2024/01/07 10:47:51;;;;;;;2.22;1.88;;;-1.40;99.90;;;;;;4999571;28;20026;-62
2024/01/07 10:50:17;;;;;;;4.18;2.40;;;-1.40;99.90;;;;;;4998895;28;20041;-61
2024/01/07 10:52:43;;;;;;;3.58;2.35;;;-1.40;99.90;;;;;;4993460;28;20049;-64
2024/01/07 10:55:11;;;;;;;2.55;2.05;;;-1.40;99.90;;;;;;4997467;28;20109;-63
2024/01/07 10:57:47;;;;;;;4.30;2.20;;;-1.30;99.90;;;;;;4995671;28;20026;-63
2024/01/07 11:00:20;;;;;;;2.38;1.90;;;-1.40;99.90;;;;;;4996065;28;20053;-63
2024/01/07 11:03:02;;;;;;;4.93;2.10;;;-1.40;99.90;;;;;;4993739;28;20045;-62
2024/01/07 11:05:34;;;;;;;3.83;1.98;;;-1.40;99.90;;;;;;4983957;28;20114;-61
2024/01/07 11:08:25;;;;;;;3.30;2.30;;;-1.40;99.90;;;;;;4994515;28;20022;-62
2024/01/07 11:10:57;;;;;;;2.97;2.03;;;-1.40;99.90;;;;;;5001431;28;20125;-62
2024/01/07 11:13:36;;;;;;;2.28;1.95;;;-1.40;99.90;;;;;;4989594;28;20030;-62
2024/01/07 11:16:05;;;;;;;4.38;2.22;;;-1.40;99.90;;;;;;4984119;28;20029;-63
2024/01/07 11:18:33;;;;;;;3.65;2.10;;;-1.30;99.90;;;;;;4993792;28;20032;-63
2024/01/07 11:21:03;;;;;;;2.72;1.90;;;-1.30;99.90;;;;;;5000152;28;20029;-63
2024/01/07 11:23:34;;;;;;;6.40;2.33;;;-1.20;99.90;;;;;;4999573;28;20034;-62
2024/01/07 11:26:00;;;;;;;3.47;2.00;;;-1.20;99.90;;;;;;4999669;28;20469;-63
2024/01/07 11:28:47;;;;;;;6.25;3.08;;;-1.30;99.90;;;;;;4997111;28;20065;-61
2024/01/07 11:31:16;;;;;;;1.90;1.70;;;-1.30;99.90;;;;;;5077479;22;20042;-48
2024/01/07 11:33:49;;;;;;;2.08;1.88;;;-1.30;99.90;;;;;;5019419;28;20030;-50
2024/01/07 11:36:18;;;;;;;2.58;1.67;;;-1.30;99.90;;;;;;5019591;28;20095;-51
2024/01/07 11:38:48;;;;;;;2.38;1.42;;;-1.30;99.90;;;;;;5021448;28;20517;-50
2024/01/07 11:41:14;;;;;;;3.28;1.75;;;-1.30;99.90;;;;;;5003268;28;20057;-51
2024/01/07 11:43:54;;;;;;;4.35;1.70;;;-1.40;99.90;;;;;;4997716;28;20617;-48
2024/01/07 11:46:20;;;;;;;3.10;1.80;;;-1.40;99.90;;;;;;5005447;28;20018;-50
2024/01/07 11:48:46;;;;;;;2.70;1.52;;;-1.30;99.90;;;;;;5003907;28;20537;-48
2024/01/07 11:51:12;;;;;;;2.90;1.92;;;-1.30;99.90;;;;;;5001250;28;20030;-49
2024/01/07 11:53:37;;;;;;;2.33;1.30;;;-1.30;99.90;;;;;;5001929;28;20045;-48
2024/01/07 11:56:04;;;;;;;1.58;1.27;;;-1.30;99.90;;;;;;5000985;28;20555;-51
2024/01/07 11:58:33;;;;;;;2.35;1.23;;;-1.30;99.90;;;;;;5001569;28;20026;-50
2024/01/07 12:00:58;;;;;;;2.13;1.13;;;-1.30;99.90;;;;;;5002132;28;20537;-50
2024/01/07 12:03:24;;;;;;;3.92;1.23;;;-1.30;99.90;;;;;;4998695;28;20057;-50
2024/01/07 12:05:50;;;;;;;1.58;1.20;;;-1.30;99.90;;;;;;5003778;28;20037;-58
2024/01/07 12:08:16;;;;;;;1.55;1.23;;;-1.30;99.90;;;;;;5005083;28;20059;-53
2024/01/07 12:10:41;;;;;;;1.75;1.60;;;-1.30;99.90;;;;;;5002697;28;20033;-50
2024/01/07 12:13:08;;;;;;;1.58;1.20;;;-1.30;99.90;;;;;;4996484;28;20512;-52
2024/01/07 12:15:34;;;;;;;3.63;1.42;;;-1.40;99.90;;;;;;5001520;28;20054;-49
2024/01/07 12:18:01;;;;;;;1.35;1.25;;;-1.40;99.90;;;;;;5001530;28;20084;-51
2024/01/07 12:20:27;;;;;;;1.35;1.20;;;-1.40;99.90;;;;;;5002518;28;20088;-54
2024/01/07 12:22:57;;;;;;;5.68;1.50;;;-1.40;99.90;;;;;;4999175;28;20117;-51
2024/01/07 12:25:26;;;;;;;4.82;1.52;;;-1.50;99.90;;;;;;5003929;28;20026;-54
2024/01/07 12:27:54;;;;;;;2.05;1.33;;;-1.50;99.90;;;;;;5002076;28;20029;-59
2024/01/07 12:30:20;;;;;;;1.70;1.30;;;-1.50;99.90;;;;;;4999687;28;20046;-52
2024/01/07 12:32:46;;;;;;;2.65;1.83;;;-1.40;99.90;;;;;;5002327;28;20215;-49
2024/01/07 12:35:11;;;;;;;2.25;1.38;;;-1.50;99.90;;;;;;5003289;28;20862;-54
2024/01/07 12:37:38;;;;;;;2.38;1.40;;;-1.50;99.90;;;;;;5000245;28;20042;-50
2024/01/07 12:40:04;;;;;;;2.80;1.23;;;-1.50;99.90;;;;;;5003825;28;20523;-54
2024/01/07 12:42:30;;;;;;;2.65;1.50;;;-1.50;99.90;;;;;;5001787;28;20030;-51